Flight Track Log - Related Links

Times and Time Zones

All times are in EDT time to prevent confusion due to time zone crossing. See the N64DC flight status page for this flight to view local times or setup timezone preferences in your user account.

Time Position Orientation Groundspeed Altitude Reporting Facility
EDT Latitude Longitude Course Direction KTS MPH feet Rate Location/Type
Fri 09:05:37 AM 42.6639 -83.4531 302° West 136 157 1,700  Level DTW
Fri 09:06:57 AM 42.6858 -83.5017 20° North 138 159 4,200 1,777 Climbing DTW
Fri 09:08:36 AM 42.7417 -83.4733 26° Northeast 138 159 7,000 1,736 Climbing DTW
Fri 09:10:14 AM 42.8064 -83.4297 23° Northeast 152 175 9,900 1,242 Climbing DTW
Fri 09:11:54 AM 42.8836 -83.3856 25° Northeast 201 231 11,100 507 Climbing DTW
Fri 09:12:36 AM 42.9164 -83.3644 327° Northwest 188 216 11,100 647 Level Cleveland Center
Fri 09:13:36 AM 42.9633 -83.4061 308° West 177 204 12,200 1,150 Climbing Cleveland Center
Fri 09:14:36 AM 42.9953 -83.4617 307° West 177 204 13,400 1,210 Climbing Cleveland Center
Fri 09:15:35 AM 43.0292 -83.5228 315° West 194 223 14,600 1,200 Climbing Cleveland Center
Fri 09:16:36 AM 43.0675 -83.5758 308° West 199 229 15,800 1,091 Climbing Cleveland Center
Fri 09:17:36 AM 43.1014 -83.6342 311° West 204 235 16,800 1,059 Climbing Cleveland Center
Fri 09:18:35 AM 43.1394 -83.6931 309° West 209 241 17,900 1,050 Climbing Cleveland Center
Fri 09:19:36 AM 43.1772 -83.7575 311° West 209 241 18,900 950 Climbing Cleveland Center
Fri 09:20:35 AM 43.2153 -83.8167 309° West 209 241 19,800 555 Climbing Cleveland Center
Fri 09:21:35 AM 43.2531 -83.8811 311° West 209 241 20,000 50 Climbing Cleveland Center
Fri 09:22:36 AM 43.2969 -83.9492 313° West 222 255 19,900  Descending Cleveland Center
Fri 09:23:36 AM 43.3428 -84.0175 312° West 227 261 20,000 50 Climbing Cleveland Center
Fri 09:24:36 AM 43.3886 -84.0886 310° West 237 273 20,000  Level Cleveland Center
Fri 09:25:36 AM 43.4322 -84.1597 312° West 237 273 20,000  Level Cleveland Center
Fri 09:26:36 AM 43.4761 -84.2281 312° West 237 273 20,000  Level Cleveland Center
Fri 09:28:19 AM 43.5517 -84.3456 309° West 248 285 20,000  Level Minneapolis Center
Fri 09:29:18 AM 43.5903 -84.4114 310° West 243 280 20,000  Level Minneapolis Center
Fri 09:30:19 AM 43.6336 -84.4825 309° West 243 280 20,000  Level Minneapolis Center
Fri 09:31:19 AM 43.6750 -84.5539 313° West 243 280 20,000  Level Minneapolis Center
Fri 09:32:19 AM 43.7225 -84.6244 309° West 243 280 20,000  Level Minneapolis Center
Fri 09:33:18 AM 43.7636 -84.6958 309° West 243 280 20,000  Level Minneapolis Center
Fri 09:34:19 AM 43.8069 -84.7700 312° West 243 280 20,000  Level Minneapolis Center
Fri 09:35:19 AM 43.8497 -84.8358 308° West 243 280 20,000  Level Minneapolis Center
Fri 09:36:19 AM 43.8908 -84.9078 311° West 243 280 20,000  Level Minneapolis Center
Fri 09:37:18 AM 43.9336 -84.9767 311° West 243 280 20,000  Level Minneapolis Center
Fri 09:38:19 AM 43.9764 -85.0456 309° West 243 280 20,000  Level Minneapolis Center
Fri 09:39:19 AM 44.0219 -85.1231 307° West 243 280 20,000  Level Minneapolis Center
Fri 09:40:19 AM 44.0581 -85.1903 311° West 237 273 20,000  Level Minneapolis Center
Fri 09:41:19 AM 44.1008 -85.2594 313° West 237 273 20,000  Level Minneapolis Center
Fri 09:42:19 AM 44.1453 -85.3256 308° West 237 273 20,000  Level Minneapolis Center
Fri 09:43:18 AM 44.1861 -85.3981 309° West 237 273 20,000  Level Minneapolis Center
Fri 09:44:19 AM 44.2289 -85.4706 312° West 237 273 20,000  Level Minneapolis Center
Fri 09:45:19 AM 44.2714 -85.5375 309° West 237 273 20,000  Level Minneapolis Center
Fri 09:46:18 AM 44.3117 -85.6075 309° West 237 273 20,000  Level Minneapolis Center
Fri 09:47:18 AM 44.3544 -85.6803 309° West 237 273 20,000  Level Minneapolis Center
Fri 09:48:19 AM 44.3947 -85.7506 309° West 231 266 20,000  Level Minneapolis Center
Fri 09:49:19 AM 44.4350 -85.8208 311° West 231 266 20,000  Level Minneapolis Center
Fri 09:50:18 AM 44.4772 -85.8881 309° West 231 266 20,000  Level Minneapolis Center
Fri 09:51:19 AM 44.5175 -85.9586 309° West 231 266 20,000  Level Minneapolis Center
Fri 09:52:19 AM 44.5575 -86.0292 310° West 231 266 20,000  Level Minneapolis Center
Fri 09:53:19 AM 44.5997 -86.0997 309° West 231 266 20,000  Level Minneapolis Center
Fri 09:54:19 AM 44.6400 -86.1706 305° West 231 266 20,000  Level Minneapolis Center
Fri 09:55:19 AM 44.6783 -86.2478 311° West 231 266 20,000  Level Minneapolis Center
Fri 09:56:19 AM 44.7203 -86.3156 308° West 236 272 20,000  Level Minneapolis Center
Fri 09:57:18 AM 44.7603 -86.3867 306° West 231 266 20,000  Level Minneapolis Center
Fri 09:58:18 AM 44.8006 -86.4639 307° West 231 266 20,000  Level Minneapolis Center
Fri 09:59:19 AM 44.8383 -86.5356 308° West 231 266 20,000  Level Minneapolis Center
Fri 10:00:18 AM 44.8781 -86.6069 308° West 231 266 20,000  Level Minneapolis Center
Fri 10:01:19 AM 44.9156 -86.6758 310° West 231 266 20,000  Level Minneapolis Center
Fri 10:02:18 AM 44.9597 -86.7497 312° West 231 266 20,000  Level Minneapolis Center
Fri 10:03:19 AM 44.9967 -86.8072 310° West 226 260 20,000  Level Minneapolis Center
Fri 10:04:19 AM 45.0358 -86.8733 307° West 221 254 20,000  Level Minneapolis Center
Fri 10:05:19 AM 45.0711 -86.9397 310° West 221 254 20,000  Level Minneapolis Center
Fri 10:06:19 AM 45.1081 -87.0033 311° West 216 249 20,000  Level Minneapolis Center
Fri 10:07:19 AM 45.1450 -87.0642 306° West 216 249 20,000  Level Minneapolis Center
Fri 10:08:19 AM 45.1778 -87.1281 309° West 216 249 20,000  Level Minneapolis Center
Fri 10:09:19 AM 45.2147 -87.1919 307° West 216 249 20,000  Level Minneapolis Center
Fri 10:10:18 AM 45.2497 -87.2589 311° West 216 249 20,000  Level Minneapolis Center
Fri 10:11:19 AM 45.2864 -87.3200 308° West 216 249 20,000  Level Minneapolis Center
Fri 10:12:19 AM 45.3211 -87.3842 308° West 211 243 20,000  Level Minneapolis Center
Fri 10:13:19 AM 45.3558 -87.4483 308° West 211 243 20,000  Level Minneapolis Center
Fri 10:14:19 AM 45.3906 -87.5128 310° West 211 243 20,000  Level Minneapolis Center
Fri 10:15:19 AM 45.4294 -87.5797 305° West 211 243 20,000  Level Minneapolis Center
Fri 10:16:19 AM 45.4597 -87.6417 310° West 211 243 20,000  Level Minneapolis Center
Fri 10:17:19 AM 45.4942 -87.7006 308° West 200 230 20,000  Level Minneapolis Center
Fri 10:18:19 AM 45.5264 -87.7594 308° West 195 224 20,000  Level Minneapolis Center
Fri 10:19:19 AM 45.5606 -87.8214 308° West 195 224 20,000  Level Minneapolis Center
Fri 10:20:19 AM 45.5928 -87.8806 309° West 189 217 20,000  Level Minneapolis Center
Fri 10:21:19 AM 45.6225 -87.9339 311° West 189 217 20,000  Level Minneapolis Center
Fri 10:22:19 AM 45.6586 -87.9928 308° West 189 217 20,000  Level Minneapolis Center
Fri 10:23:19 AM 45.6908 -88.0522 310° West 189 217 20,000  Level Minneapolis Center
Fri 10:24:19 AM 45.7225 -88.1056 305° West 189 217 20,000  Level Minneapolis Center
Fri 10:25:19 AM 45.7547 -88.1711 308° West 189 217 20,000  Level Minneapolis Center
Fri 10:26:19 AM 45.7844 -88.2250 309° West 189 217 20,000  Level Minneapolis Center
Fri 10:27:19 AM 45.8183 -88.2844 306° West 189 217 20,000  Level Minneapolis Center
Fri 10:28:19 AM 45.8481 -88.3442 308° West 189 217 20,000  Level Minneapolis Center
Fri 10:29:19 AM 45.8800 -88.4039 307° West 189 217 20,000  Level Minneapolis Center
Fri 10:30:18 AM 45.9119 -88.4639 309° West 189 217 20,000  Level Minneapolis Center
Fri 10:31:19 AM 45.9436 -88.5208 306° West 189 217 20,000  Level Minneapolis Center
Fri 10:32:19 AM 45.9753 -88.5836 311° West 189 217 20,000  Level Minneapolis Center
Fri 10:33:19 AM 46.0092 -88.6406 305° West 189 217 20,000  Level Minneapolis Center
Fri 10:34:19 AM 46.0386 -88.7008 309° West 189 217 20,000  Level Minneapolis Center
Fri 10:35:19 AM 46.0725 -88.7608 307° West 189 217 20,000  Level Minneapolis Center
Fri 10:36:19 AM 46.1042 -88.8211 307° West 189 217 20,000  Level Minneapolis Center
Fri 10:37:19 AM 46.1358 -88.8814 308° West 189 217 20,000  Level Minneapolis Center
Fri 10:38:19 AM 46.1717 -88.9475 308° West 189 217 20,000  Level Minneapolis Center
Fri 10:39:19 AM 46.2031 -89.0047 306° West 190 219 20,000  Level Minneapolis Center
Fri 10:40:19 AM 46.2303 -89.0597 305° West 184 212 20,000  Level Minneapolis Center
Fri 10:41:18 AM 46.2642 -89.1292 309° West 189 217 20,000  Level Minneapolis Center
Fri 10:42:19 AM 46.2978 -89.1897 309° West 194 223 20,000  Level Minneapolis Center
Fri 10:43:19 AM 46.3267 -89.2417 305° West 188 216 20,000  Level Minneapolis Center
Fri 10:44:19 AM 46.3583 -89.3083 312° West 188 216 20,000  Level Minneapolis Center
Fri 10:45:19 AM 46.3939 -89.3658 297° West 196 226 20,000  Level Minneapolis Center
Fri 10:46:19 AM 46.4169 -89.4306 307° West 191 220 20,000  Level Minneapolis Center
Fri 10:47:19 AM 46.4483 -89.4914 305° West 191 220 20,000  Level Minneapolis Center
Fri 10:48:19 AM 46.4797 -89.5556 307° West 191 220 20,000  Level Minneapolis Center
Fri 10:49:19 AM 46.5108 -89.6167 306° West 191 220 20,000  Level Minneapolis Center
Fri 10:50:19 AM 46.5419 -89.6781 309° West 191 220 20,000  Level Minneapolis Center
Fri 10:51:19 AM 46.5753 -89.7392 305° West 191 220 20,000  Level Minneapolis Center
Fri 10:52:19 AM 46.6067 -89.8036 304° West 191 220 20,000  Level Minneapolis Center
Fri 10:53:19 AM 46.6356 -89.8650 308° West 191 220 20,000  Level Minneapolis Center
Fri 10:54:19 AM 46.6686 -89.9264 307° West 191 220 20,000  Level Minneapolis Center
Fri 10:55:19 AM 46.7019 -89.9908 304° West 191 220 20,000  Level Minneapolis Center
Fri 10:56:19 AM 46.7308 -90.0528 306° West 191 220 20,000  Level Minneapolis Center
Fri 10:57:19 AM 46.7619 -90.1144 305° West 191 220 20,000  Level Minneapolis Center
Fri 10:58:19 AM 46.7928 -90.1794 306° West 191 220 20,000  Level Minneapolis Center
Fri 10:59:19 AM 46.8239 -90.2411 305° West 191 220 20,000  Level Minneapolis Center
Fri 11:00:19 AM 46.8547 -90.3061 307° West 191 220 20,000  Level Minneapolis Center
Fri 11:01:19 AM 46.8856 -90.3653 306° West 191 220 20,000  Level Minneapolis Center
Fri 11:02:19 AM 46.9164 -90.4272 309° West 191 220 20,000  Level Minneapolis Center
Fri 11:03:19 AM 46.9492 -90.4861 306° West 191 220 20,000  Level Minneapolis Center
Fri 11:04:19 AM 46.9842 -90.5575 309° West 191 220 20,000  Level Minneapolis Center
Fri 11:05:19 AM 47.0169 -90.6167 302° West 191 220 20,000  Level Minneapolis Center
Fri 11:06:19 AM 47.0458 -90.6850 307° West 191 220 20,000  Level Minneapolis Center
Fri 11:07:19 AM 47.0783 -90.7475 303° West 191 220 20,000  Level Minneapolis Center
Fri 11:08:19 AM 47.1069 -90.8131 309° West 191 220 20,000  Level Minneapolis Center
Fri 11:09:19 AM 47.1417 -90.8756 305° West 191 220 20,000  Level Minneapolis Center
Fri 11:10:19 AM 47.1725 -90.9414 306° West 191 220 20,000  Level Minneapolis Center
Fri 11:11:19 AM 47.2028 -91.0039 308° West 191 220 20,000  Level Minneapolis Center
Fri 11:12:19 AM 47.2397 -91.0728 306° West 191 220 20,000  Level Minneapolis Center
Fri 11:13:19 AM 47.2703 -91.1356 308° West 191 220 20,000  Level Minneapolis Center
Fri 11:14:19 AM 47.3047 -91.2014 303° West 191 220 20,000  Level Minneapolis Center
Fri 11:15:19 AM 47.3353 -91.2706 309° West 191 220 20,000  Level Minneapolis Center
Fri 11:16:19 AM 47.3697 -91.3336 302° West 191 220 20,000  Level Minneapolis Center
Fri 11:17:19 AM 47.4003 -91.4061 306° West 191 220 20,000  Level Minneapolis Center
Fri 11:18:19 AM 47.4325 -91.4722 307° West 191 220 20,000  Level Minneapolis Center
Fri 11:19:19 AM 47.4669 -91.5386 305° West 196 226 20,000  Level Minneapolis Center
Fri 11:20:19 AM 47.4994 -91.6081 304° West 196 226 20,000  Level Minneapolis Center
Fri 11:21:19 AM 47.5317 -91.6778 304° West 201 231 20,000  Level Minneapolis Center
Fri 11:22:18 AM 47.5639 -91.7475 303° West 206 237 20,000  Level Minneapolis Center
Fri 11:23:19 AM 47.5942 -91.8172 307° West 206 237 20,000  Level Minneapolis Center
Fri 11:24:19 AM 47.6283 -91.8839 302° West 206 237 20,000  Level Minneapolis Center
Fri 11:25:19 AM 47.6583 -91.9539 304° West 206 237 20,000  Level Minneapolis Center
Fri 11:26:19 AM 47.6906 -92.0239 302° West 206 237 20,000  Level Minneapolis Center
Fri 11:27:19 AM 47.7206 -92.0942 306° West 206 237 20,000  Level Minneapolis Center
Fri 11:28:19 AM 47.7503 -92.1550 305° West 206 237 20,000  Level Minneapolis Center
Fri 11:29:19 AM 47.7822 -92.2222 308° West 206 237 20,000  Level Minneapolis Center
Fri 11:30:19 AM 47.8164 -92.2864 305° West 206 237 20,000  Level Minneapolis Center
Fri 11:31:19 AM 47.8481 -92.3536 305° West 206 237 20,000  Level Minneapolis Center
Fri 11:32:19 AM 47.8800 -92.4211 304° West 206 237 20,000  Level Minneapolis Center
Fri 11:33:18 AM 47.9119 -92.4917 307° West 206 237 20,000  Level Minneapolis Center
Fri 11:34:19 AM 47.9458 -92.5592 302° West 206 237 20,000  Level Minneapolis Center
Fri 11:35:19 AM 47.9753 -92.6300 304° West 206 237 20,000  Level Minneapolis Center
Fri 11:36:19 AM 48.0092 -92.7039 305° West 206 237 20,000  Level Minneapolis Center
Fri 11:37:19 AM 48.0408 -92.7719 305° West 206 237 20,000  Level Minneapolis Center
Fri 11:38:19 AM 48.0744 -92.8428 304° West 206 237 20,000  Level Minneapolis Center
Fri 11:39:19 AM 48.1061 -92.9139 302° West 206 237 20,000  Level Minneapolis Center
Fri 11:40:19 AM 48.1375 -92.9883 287° West 206 237 20,000  Level Minneapolis Center
Fri 11:41:32 AM 48.1500 -93.0500 314° West 210 242 20,000  Level Winnipeg Center
Fri 11:42:19 AM 48.2047 -93.1339 302° West 206 237 20,000  Level Minneapolis Center
Fri 11:43:19 AM 48.2361 -93.2086 303° West 206 237 20,000  Level Minneapolis Center
Fri 11:44:19 AM 48.2675 -93.2803 304° West 206 237 20,000  Level Minneapolis Center
Fri 11:45:19 AM 48.3008 -93.3550 303° West 206 237 20,000  Level Minneapolis Center
Fri 11:46:19 AM 48.3319 -93.4267 306° West 206 237 20,000  Level Minneapolis Center
Fri 11:47:18 AM 48.3675 -93.5017 303° West 206 237 20,000  Level Minneapolis Center
Fri 11:48:19 AM 48.3986 -93.5736 304° West 211 243 20,000  Level Minneapolis Center
Fri 11:49:19 AM 48.4317 -93.6486 304° West 211 243 20,000  Level Minneapolis Center
Fri 11:50:19 AM 48.4650 -93.7239 305° West 216 249 20,000  Level Minneapolis Center
Fri 11:51:18 AM 48.4981 -93.7961 301° West 216 249 20,000  Level Minneapolis Center
Fri 11:52:19 AM 48.5289 -93.8747 303° West 216 249 20,000  Level Minneapolis Center
Fri 11:53:19 AM 48.5619 -93.9503 306° West 216 249 20,000  Level Minneapolis Center
Fri 11:54:19 AM 48.5969 -94.0228 302° West 216 249 20,000  Level Minneapolis Center
Fri 11:55:19 AM 48.6300 -94.1017 303° West 216 249 20,000  Level Minneapolis Center
Fri 11:56:19 AM 48.6628 -94.1775 301° West 216 249 20,000  Level Minneapolis Center
Fri 11:57:19 AM 48.6933 -94.2533 306° West 216 249 20,000  Level Minneapolis Center
Fri 11:58:19 AM 48.7283 -94.3261 300° West 216 249 20,000 -300 Level Minneapolis Center
Fri 11:59:19 AM 48.7589 -94.4053 303° West 216 249 19,400 -700 Descending Minneapolis Center
Fri 12:00:19 PM 48.7956 -94.4911 299° West 226 260 18,600 -750 Descending Minneapolis Center
Fri 12:01:19 PM 48.8281 -94.5800 305° West 232 267 17,900 -800 Descending Minneapolis Center
Fri 12:02:19 PM 48.8647 -94.6597 305° West 232 267 17,000 -700 Descending Minneapolis Center
Fri 12:03:19 PM 48.9014 -94.7394 306° West 232 267 16,500 -500 Descending Minneapolis Center
Fri 12:04:19 PM 48.9400 -94.8194 303° West 232 267 16,000 -250 Descending Minneapolis Center
Fri 12:05:19 PM 48.9744 -94.8994 301° West 232 267 16,000  Level Minneapolis Center
Fri 12:06:19 PM 49.0067 -94.9825 299° West 232 267 16,000  Level Minneapolis Center
Fri 12:08:32 PM 49.0667 -95.1500 301° West 230 265 16,000  Level Winnipeg Center
Fri 12:09:32 PM 49.1000 -95.2333 297° West 230 265 16,000  Level Winnipeg Center
Fri 12:10:32 PM 49.1333 -95.3333 307° West 230 265 16,000  Level Winnipeg Center
Fri 12:11:32 PM 49.1667 -95.4000 301° West 230 265 16,000  Level Winnipeg Center
Fri 12:12:32 PM 49.2000 -95.4833 307° West 230 265 16,000  Level Winnipeg Center
Fri 12:13:32 PM 49.2333 -95.5500 302° West 230 265 16,000  Level Winnipeg Center
Fri 12:14:32 PM 49.2667 -95.6333 297° West 220 253 16,000 -50 Level Winnipeg Center
Fri 12:15:32 PM 49.3000 -95.7333 302° West 220 253 15,900 -450 Descending Winnipeg Center
Fri 12:16:32 PM 49.3333 -95.8167 308° West 230 265 15,100 -750 Descending Winnipeg Center
Fri 12:17:32 PM 49.3667 -95.8833 297° West 230 265 14,400 -800 Descending Winnipeg Center
Fri 12:18:32 PM 49.4000 -95.9833 302° West 240 276 13,500 -700 Descending Winnipeg Center
Fri 12:19:32 PM 49.4333 -96.0667 297° West 240 276 13,000 -600 Descending Winnipeg Center
Fri 12:20:32 PM 49.4667 -96.1667 313° West 240 276 12,300 -600 Descending Winnipeg Center
Fri 12:21:32 PM 49.5167 -96.2500 308° West 240 276 11,800 -750 Descending Winnipeg Center
Fri 12:22:32 PM 49.5500 -96.3167 297° West 240 276 10,800 -800 Descending Winnipeg Center
Fri 12:23:32 PM 49.5833 -96.4167 302° West 240 276 10,200 -750 Descending Winnipeg Center
Fri 12:24:32 PM 49.6167 -96.5000 313° West 240 276 9,300 -1,000 Descending Winnipeg Center
Fri 12:25:32 PM 49.6667 -96.5833 297° West 240 276 8,200 -950 Descending Winnipeg Center
Fri 12:26:32 PM 49.7000 -96.6833 302° West 250 288 7,400 -850 Descending Winnipeg Center
Fri 12:27:32 PM 49.7333 -96.7667 297° West 240 276 6,500 -850 Descending Winnipeg Center
Fri 12:28:32 PM 49.7667 -96.8667 319° Northwest 240 276 5,700 -850 Descending Winnipeg Center
Fri 12:29:32 PM 49.8167 -96.9333 308° West 230 265 4,800 -950 Descending Winnipeg Center
Fri 12:30:32 PM 49.8500 -97.0000 327° Northwest 220 253 3,800 -850 Descending Winnipeg Center
Fri 12:31:32 PM 49.9000 -97.0500 327° Northwest 220 253 3,100 -400 Descending Winnipeg Center
Fri 12:32:32 PM 49.9500 -97.1000 316° Northwest 200 230 3,000 -50 Descending Winnipeg Center
Fri 12:33:32 PM 49.9833 -97.1500 270° West 180 207 3,000 -100 Level Winnipeg Center
Fri 12:34:32 PM 49.9833 -97.2000 213° Southwest 160 184 2,800 -550 Descending Winnipeg Center
Fri 12:35:32 PM 49.9500 -97.2333 180° South 120 138 1,900 -800 Descending Winnipeg Center
Fri 12:36:32 PM 49.9167 -97.2333 180° South 100 115 1,200 -550 Descending Winnipeg Center
Fri 12:37:32 PM 49.9000 -97.2333 180° South 100 115 800 -400 Descending Winnipeg Center

Login

Don't have an account? Register now (free) for customized features, flight alerts, and more!